sensor_id;sensor_type;location;lat;lon;timestamp;temperature;humidity
11848;DHT22;5983;49.966;8.052;2023-09-12T00:00:39;19.60;99.90
11848;DHT22;5983;49.966;8.052;2023-09-12T00:03:06;19.50;99.90
11848;DHT22;5983;49.966;8.052;2023-09-12T00:05:34;19.50;99.90
11848;DHT22;5983;49.966;8.052;2023-09-12T00:08:01;19.50;99.90
11848;DHT22;5983;49.966;8.052;2023-09-12T00:10:28;19.50;99.90
11848;DHT22;5983;49.966;8.052;2023-09-12T00:12:56;19.50;99.90
11848;DHT22;5983;49.966;8.052;2023-09-12T00:15:26;19.40;99.90
11848;DHT22;5983;49.966;8.052;2023-09-12T00:17:52;19.30;99.90
11848;DHT22;5983;49.966;8.052;2023-09-12T00:20:19;19.20;99.90
11848;DHT22;5983;49.966;8.052;2023-09-12T00:22:47;19.20;99.90
11848;DHT22;5983;49.966;8.052;2023-09-12T00:25:14;19.20;99.90
11848;DHT22;5983;49.966;8.052;2023-09-12T00:27:41;19.10;99.90
11848;DHT22;5983;49.966;8.052;2023-09-12T00:30:08;19.20;99.90
11848;DHT22;5983;49.966;8.052;2023-09-12T00:32:35;19.20;99.90
11848;DHT22;5983;49.966;8.052;2023-09-12T00:35:02;19.20;99.90
11848;DHT22;5983;49.966;8.052;2023-09-12T00:37:29;19.30;99.90
11848;DHT22;5983;49.966;8.052;2023-09-12T00:39:57;19.30;99.90
11848;DHT22;5983;49.966;8.052;2023-09-12T00:42:24;19.30;99.90
11848;DHT22;5983;49.966;8.052;2023-09-12T00:44:51;19.30;99.90
11848;DHT22;5983;49.966;8.052;2023-09-12T00:47:18;19.30;99.90
11848;DHT22;5983;49.966;8.052;2023-09-12T00:49:47;19.30;99.90
11848;DHT22;5983;49.966;8.052;2023-09-12T00:52:14;19.20;99.90
11848;DHT22;5983;49.966;8.052;2023-09-12T00:54:42;19.30;99.90
11848;DHT22;5983;49.966;8.052;2023-09-12T00:57:10;19.20;99.90
11848;DHT22;5983;49.966;8.052;2023-09-12T00:59:37;19.20;99.90
11848;DHT22;5983;49.966;8.052;2023-09-12T01:02:04;19.20;99.90
11848;DHT22;5983;49.966;8.052;2023-09-12T01:04:32;19.30;99.90
11848;DHT22;5983;49.966;8.052;2023-09-12T01:06:59;19.30;99.90
11848;DHT22;5983;49.966;8.052;2023-09-12T01:09:26;19.30;99.90
11848;DHT22;5983;49.966;8.052;2023-09-12T01:11:52;19.30;99.90
11848;DHT22;5983;49.966;8.052;2023-09-12T01:14:21;19.30;99.90
11848;DHT22;5983;49.966;8.052;2023-09-12T01:16:48;19.30;99.90
11848;DHT22;5983;49.966;8.052;2023-09-12T01:19:14;19.30;99.90
11848;DHT22;5983;49.966;8.052;2023-09-12T01:24:48;19.20;99.90
11848;DHT22;5983;49.966;8.052;2023-09-12T01:27:31;19.10;99.90
11848;DHT22;5983;49.966;8.052;2023-09-12T01:30:02;19.00;99.90
11848;DHT22;5983;49.966;8.052;2023-09-12T01:32:31;19.00;99.90
11848;DHT22;5983;49.966;8.052;2023-09-12T01:34:59;19.00;99.90
11848;DHT22;5983;49.966;8.052;2023-09-12T01:37:25;19.00;99.90
11848;DHT22;5983;49.966;8.052;2023-09-12T01:39:52;18.90;99.90
11848;DHT22;5983;49.966;8.052;2023-09-12T01:42:20;18.90;99.90
11848;DHT22;5983;49.966;8.052;2023-09-12T01:44:50;19.00;99.90
11848;DHT22;5983;49.966;8.052;2023-09-12T01:47:21;19.00;99.90
11848;DHT22;5983;49.966;8.052;2023-09-12T01:49:49;19.00;99.90
11848;DHT22;5983;49.966;8.052;2023-09-12T01:52:19;19.00;99.90
11848;DHT22;5983;49.966;8.052;2023-09-12T01:54:46;19.00;99.90
11848;DHT22;5983;49.966;8.052;2023-09-12T01:57:14;18.90;99.90
11848;DHT22;5983;49.966;8.052;2023-09-12T01:59:41;18.80;99.90
11848;DHT22;5983;49.966;8.052;2023-09-12T02:02:10;18.80;99.90
11848;DHT22;5983;49.966;8.052;2023-09-12T02:04:36;18.70;99.90
11848;DHT22;5983;49.966;8.052;2023-09-12T02:07:03;18.70;99.90
11848;DHT22;5983;49.966;8.052;2023-09-12T02:09:30;18.70;99.90
11848;DHT22;5983;49.966;8.052;2023-09-12T02:11:57;18.70;99.90
11848;DHT22;5983;49.966;8.052;2023-09-12T02:14:24;18.70;99.90
11848;DHT22;5983;49.966;8.052;2023-09-12T02:16:50;18.70;99.90
11848;DHT22;5983;49.966;8.052;2023-09-12T02:19:18;18.70;99.90
11848;DHT22;5983;49.966;8.052;2023-09-12T02:24:21;18.60;99.90
11848;DHT22;5983;49.966;8.052;2023-09-12T02:26:47;18.60;99.90
11848;DHT22;5983;49.966;8.052;2023-09-12T02:29:14;18.60;99.90
11848;DHT22;5983;49.966;8.052;2023-09-12T02:31:41;18.60;99.90
11848;DHT22;5983;49.966;8.052;2023-09-12T02:34:08;18.70;99.90
11848;DHT22;5983;49.966;8.052;2023-09-12T02:36:36;18.70;99.90
11848;DHT22;5983;49.966;8.052;2023-09-12T02:39:03;18.70;99.90
11848;DHT22;5983;49.966;8.052;2023-09-12T02:41:30;18.70;99.90
11848;DHT22;5983;49.966;8.052;2023-09-12T02:43:56;18.70;99.90
11848;DHT22;5983;49.966;8.052;2023-09-12T02:46:24;18.70;99.90
11848;DHT22;5983;49.966;8.052;2023-09-12T02:48:50;18.70;99.90
11848;DHT22;5983;49.966;8.052;2023-09-12T02:51:17;18.70;99.90
11848;DHT22;5983;49.966;8.052;2023-09-12T02:53:45;18.70;99.90
11848;DHT22;5983;49.966;8.052;2023-09-12T02:56:12;18.70;99.90
11848;DHT22;5983;49.966;8.052;2023-09-12T02:58:39;18.70;99.90
11848;DHT22;5983;49.966;8.052;2023-09-12T03:01:05;18.70;99.90
11848;DHT22;5983;49.966;8.052;2023-09-12T03:03:32;18.70;99.90
11848;DHT22;5983;49.966;8.052;2023-09-12T03:06:00;18.70;99.90
11848;DHT22;5983;49.966;8.052;2023-09-12T03:08:28;18.80;99.90
11848;DHT22;5983;49.966;8.052;2023-09-12T03:10:56;18.70;99.90
11848;DHT22;5983;49.966;8.052;2023-09-12T03:13:24;18.70;99.90
11848;DHT22;5983;49.966;8.052;2023-09-12T03:15:51;18.70;99.90
11848;DHT22;5983;49.966;8.052;2023-09-12T03:18:18;18.60;99.90
11848;DHT22;5983;49.966;8.052;2023-09-12T03:20:44;18.60;99.90
11848;DHT22;5983;49.966;8.052;2023-09-12T03:23:11;18.70;99.90
11848;DHT22;5983;49.966;8.052;2023-09-12T03:25:38;18.70;99.90
11848;DHT22;5983;49.966;8.052;2023-09-12T03:28:06;18.60;99.90
11848;DHT22;5983;49.966;8.052;2023-09-12T03:30:34;18.70;99.90
11848;DHT22;5983;49.966;8.052;2023-09-12T03:33:01;18.60;99.90
11848;DHT22;5983;49.966;8.052;2023-09-12T03:35:28;18.60;99.90
11848;DHT22;5983;49.966;8.052;2023-09-12T03:37:55;18.60;99.90
11848;DHT22;5983;49.966;8.052;2023-09-12T03:40:22;18.70;99.90
11848;DHT22;5983;49.966;8.052;2023-09-12T03:42:49;18.70;99.90
11848;DHT22;5983;49.966;8.052;2023-09-12T03:45:17;18.60;99.90
11848;DHT22;5983;49.966;8.052;2023-09-12T03:47:43;18.70;99.90
11848;DHT22;5983;49.966;8.052;2023-09-12T03:50:12;18.70;99.90
11848;DHT22;5983;49.966;8.052;2023-09-12T03:52:39;18.70;99.90
11848;DHT22;5983;49.966;8.052;2023-09-12T03:55:06;18.60;99.90
11848;DHT22;5983;49.966;8.052;2023-09-12T03:57:33;18.50;99.90
11848;DHT22;5983;49.966;8.052;2023-09-12T04:00:00;18.50;99.90
11848;DHT22;5983;49.966;8.052;2023-09-12T04:02:30;18.50;99.90
11848;DHT22;5983;49.966;8.052;2023-09-12T04:04:57;18.50;99.90
11848;DHT22;5983;49.966;8.052;2023-09-12T04:07:24;18.50;99.90
11848;DHT22;5983;49.966;8.052;2023-09-12T04:09:51;18.50;99.90
11848;DHT22;5983;49.966;8.052;2023-09-12T04:12:18;18.50;99.90
11848;DHT22;5983;49.966;8.052;2023-09-12T04:14:44;18.50;99.90
11848;DHT22;5983;49.966;8.052;2023-09-12T04:17:11;18.50;99.90
11848;DHT22;5983;49.966;8.052;2023-09-12T04:19:39;18.50;99.90
11848;DHT22;5983;49.966;8.052;2023-09-12T04:22:06;18.50;99.90
11848;DHT22;5983;49.966;8.052;2023-09-12T04:24:33;18.60;99.90
11848;DHT22;5983;49.966;8.052;2023-09-12T04:26:59;18.60;99.90
11848;DHT22;5983;49.966;8.052;2023-09-12T04:29:26;18.60;99.90
11848;DHT22;5983;49.966;8.052;2023-09-12T04:31:53;18.70;99.90
11848;DHT22;5983;49.966;8.052;2023-09-12T04:34:24;18.70;99.90
11848;DHT22;5983;49.966;8.052;2023-09-12T04:36:53;18.70;99.90
11848;DHT22;5983;49.966;8.052;2023-09-12T04:39:20;18.70;99.90
11848;DHT22;5983;49.966;8.052;2023-09-12T04:41:46;18.80;99.90
11848;DHT22;5983;49.966;8.052;2023-09-12T04:44:13;18.70;99.90
11848;DHT22;5983;49.966;8.052;2023-09-12T04:46:40;18.70;99.90
11848;DHT22;5983;49.966;8.052;2023-09-12T04:49:07;18.70;99.90
11848;DHT22;5983;49.966;8.052;2023-09-12T04:51:34;18.70;99.90
11848;DHT22;5983;49.966;8.052;2023-09-12T04:54:03;18.70;99.90
11848;DHT22;5983;49.966;8.052;2023-09-12T04:56:31;18.70;99.90
11848;DHT22;5983;49.966;8.052;2023-09-12T04:58:57;18.70;99.90
11848;DHT22;5983;49.966;8.052;2023-09-12T05:01:24;18.80;99.90
11848;DHT22;5983;49.966;8.052;2023-09-12T05:03:51;18.80;99.90
11848;DHT22;5983;49.966;8.052;2023-09-12T05:06:18;18.80;99.90
11848;DHT22;5983;49.966;8.052;2023-09-12T05:08:45;18.70;99.90
11848;DHT22;5983;49.966;8.052;2023-09-12T05:11:13;18.70;99.90
11848;DHT22;5983;49.966;8.052;2023-09-12T05:13:39;18.70;99.90
11848;DHT22;5983;49.966;8.052;2023-09-12T05:16:06;18.70;99.90
11848;DHT22;5983;49.966;8.052;2023-09-12T05:18:33;18.70;99.90
11848;DHT22;5983;49.966;8.052;2023-09-12T05:21:00;18.70;99.90
11848;DHT22;5983;49.966;8.052;2023-09-12T05:23:28;18.80;99.90
11848;DHT22;5983;49.966;8.052;2023-09-12T05:25:55;18.80;99.90
11848;DHT22;5983;49.966;8.052;2023-09-12T05:28:23;18.80;99.90
11848;DHT22;5983;49.966;8.052;2023-09-12T05:30:49;18.80;99.90
11848;DHT22;5983;49.966;8.052;2023-09-12T05:33:16;18.70;99.90
11848;DHT22;5983;49.966;8.052;2023-09-12T05:35:43;18.60;99.90
11848;DHT22;5983;49.966;8.052;2023-09-12T05:38:10;18.70;99.90
11848;DHT22;5983;49.966;8.052;2023-09-12T05:40:37;18.60;99.90
11848;DHT22;5983;49.966;8.052;2023-09-12T05:43:04;18.60;99.90
11848;DHT22;5983;49.966;8.052;2023-09-12T05:45:32;18.60;99.90
11848;DHT22;5983;49.966;8.052;2023-09-12T05:47:58;18.60;99.90
11848;DHT22;5983;49.966;8.052;2023-09-12T05:50:25;18.70;99.90
11848;DHT22;5983;49.966;8.052;2023-09-12T05:52:52;18.70;99.90
11848;DHT22;5983;49.966;8.052;2023-09-12T05:55:19;18.80;99.90
11848;DHT22;5983;49.966;8.052;2023-09-12T05:57:45;18.80;99.90
11848;DHT22;5983;49.966;8.052;2023-09-12T06:00:17;18.80;99.90
11848;DHT22;5983;49.966;8.052;2023-09-12T06:02:45;18.80;99.90
11848;DHT22;5983;49.966;8.052;2023-09-12T06:05:13;18.80;99.90
11848;DHT22;5983;49.966;8.052;2023-09-12T06:07:39;18.90;99.90
11848;DHT22;5983;49.966;8.052;2023-09-12T06:10:07;19.10;99.90
11848;DHT22;5983;49.966;8.052;2023-09-12T06:12:34;19.30;99.90
11848;DHT22;5983;49.966;8.052;2023-09-12T06:15:01;19.70;99.90
11848;DHT22;5983;49.966;8.052;2023-09-12T06:17:29;20.10;99.90
11848;DHT22;5983;49.966;8.052;2023-09-12T06:19:57;20.40;99.90
11848;DHT22;5983;49.966;8.052;2023-09-12T06:22:24;20.80;99.90
11848;DHT22;5983;49.966;8.052;2023-09-12T06:24:51;21.20;99.90
11848;DHT22;5983;49.966;8.052;2023-09-12T06:27:18;21.80;99.90
11848;DHT22;5983;49.966;8.052;2023-09-12T06:29:45;22.40;99.90
11848;DHT22;5983;49.966;8.052;2023-09-12T06:32:13;22.90;99.90
11848;DHT22;5983;49.966;8.052;2023-09-12T06:34:40;23.20;99.90
11848;DHT22;5983;49.966;8.052;2023-09-12T06:37:08;23.30;99.90
11848;DHT22;5983;49.966;8.052;2023-09-12T06:39:35;23.20;99.90
11848;DHT22;5983;49.966;8.052;2023-09-12T06:42:02;23.00;99.90
11848;DHT22;5983;49.966;8.052;2023-09-12T06:44:29;22.90;99.90
11848;DHT22;5983;49.966;8.052;2023-09-12T06:46:56;23.10;99.90
11848;DHT22;5983;49.966;8.052;2023-09-12T06:49:22;23.70;99.90
11848;DHT22;5983;49.966;8.052;2023-09-12T06:51:49;24.30;99.90
11848;DHT22;5983;49.966;8.052;2023-09-12T06:54:17;25.10;99.90
11848;DHT22;5983;49.966;8.052;2023-09-12T06:56:44;25.90;99.90
11848;DHT22;5983;49.966;8.052;2023-09-12T06:59:11;26.60;99.90
11848;DHT22;5983;49.966;8.052;2023-09-12T07:01:37;27.40;99.90
11848;DHT22;5983;49.966;8.052;2023-09-12T07:04:04;28.00;99.90
11848;DHT22;5983;49.966;8.052;2023-09-12T07:06:31;28.50;99.90
11848;DHT22;5983;49.966;8.052;2023-09-12T07:08:59;29.00;99.90
11848;DHT22;5983;49.966;8.052;2023-09-12T07:11:27;29.50;99.90
11848;DHT22;5983;49.966;8.052;2023-09-12T07:13:53;30.00;99.90
11848;DHT22;5983;49.966;8.052;2023-09-12T07:16:20;30.30;99.90
11848;DHT22;5983;49.966;8.052;2023-09-12T07:18:47;30.60;99.90
11848;DHT22;5983;49.966;8.052;2023-09-12T07:21:14;30.80;99.90
11848;DHT22;5983;49.966;8.052;2023-09-12T07:23:41;31.00;99.90
11848;DHT22;5983;49.966;8.052;2023-09-12T07:26:11;31.20;99.90
11848;DHT22;5983;49.966;8.052;2023-09-12T07:28:39;31.50;99.90
11848;DHT22;5983;49.966;8.052;2023-09-12T07:31:06;31.60;99.90
11848;DHT22;5983;49.966;8.052;2023-09-12T07:33:33;31.80;99.90
11848;DHT22;5983;49.966;8.052;2023-09-12T07:36:00;32.10;99.90
11848;DHT22;5983;49.966;8.052;2023-09-12T07:38:28;32.20;99.90
11848;DHT22;5983;49.966;8.052;2023-09-12T07:40:56;32.20;99.90
11848;DHT22;5983;49.966;8.052;2023-09-12T07:43:23;32.40;99.90
11848;DHT22;5983;49.966;8.052;2023-09-12T07:45:55;32.50;99.90
11848;DHT22;5983;49.966;8.052;2023-09-12T07:48:22;32.80;99.90
11848;DHT22;5983;49.966;8.052;2023-09-12T07:50:49;33.10;99.90
11848;DHT22;5983;49.966;8.052;2023-09-12T07:53:16;33.10;99.90
11848;DHT22;5983;49.966;8.052;2023-09-12T07:55:43;33.10;99.90
11848;DHT22;5983;49.966;8.052;2023-09-12T07:58:12;33.20;99.90
11848;DHT22;5983;49.966;8.052;2023-09-12T08:00:39;33.30;99.90
11848;DHT22;5983;49.966;8.052;2023-09-12T08:03:08;33.50;99.90
11848;DHT22;5983;49.966;8.052;2023-09-12T08:05:35;33.70;99.90
11848;DHT22;5983;49.966;8.052;2023-09-12T08:08:02;33.90;99.90
11848;DHT22;5983;49.966;8.052;2023-09-12T08:10:29;34.00;99.30
11848;DHT22;5983;49.966;8.052;2023-09-12T08:12:55;34.10;98.60
11848;DHT22;5983;49.966;8.052;2023-09-12T08:15:22;34.20;97.30
11848;DHT22;5983;49.966;8.052;2023-09-12T08:17:49;34.40;96.40
11848;DHT22;5983;49.966;8.052;2023-09-12T08:20:18;34.40;97.20
11848;DHT22;5983;49.966;8.052;2023-09-12T08:22:46;34.50;97.70
11848;DHT22;5983;49.966;8.052;2023-09-12T08:25:13;34.60;97.10
11848;DHT22;5983;49.966;8.052;2023-09-12T08:27:40;34.70;96.50
11848;DHT22;5983;49.966;8.052;2023-09-12T08:30:09;34.80;95.90
11848;DHT22;5983;49.966;8.052;2023-09-12T08:32:36;34.80;94.60
11848;DHT22;5983;49.966;8.052;2023-09-12T08:35:05;34.90;94.90
11848;DHT22;5983;49.966;8.052;2023-09-12T08:37:33;34.90;94.70
11848;DHT22;5983;49.966;8.052;2023-09-12T08:40:00;34.90;94.20
11848;DHT22;5983;49.966;8.052;2023-09-12T08:42:32;34.90;93.50
11848;DHT22;5983;49.966;8.052;2023-09-12T08:45:02;34.80;93.80
11848;DHT22;5983;49.966;8.052;2023-09-12T08:47:29;34.80;93.40
11848;DHT22;5983;49.966;8.052;2023-09-12T08:49:57;34.80;93.10
11848;DHT22;5983;49.966;8.052;2023-09-12T08:52:25;34.70;93.10
11848;DHT22;5983;49.966;8.052;2023-09-12T08:54:53;34.60;93.10
11848;DHT22;5983;49.966;8.052;2023-09-12T08:57:19;34.70;92.90
11848;DHT22;5983;49.966;8.052;2023-09-12T08:59:47;34.70;92.00
11848;DHT22;5983;49.966;8.052;2023-09-12T09:02:14;34.60;91.50
11848;DHT22;5983;49.966;8.052;2023-09-12T09:04:43;34.50;92.90
11848;DHT22;5983;49.966;8.052;2023-09-12T09:07:12;34.50;92.70
11848;DHT22;5983;49.966;8.052;2023-09-12T09:09:40;34.40;91.40
11848;DHT22;5983;49.966;8.052;2023-09-12T09:12:08;34.20;90.10
11848;DHT22;5983;49.966;8.052;2023-09-12T09:14:36;34.00;90.50
11848;DHT22;5983;49.966;8.052;2023-09-12T09:17:02;33.80;90.50
11848;DHT22;5983;49.966;8.052;2023-09-12T09:19:41;33.60;91.10
11848;DHT22;5983;49.966;8.052;2023-09-12T09:22:09;33.60;90.80
11848;DHT22;5983;49.966;8.052;2023-09-12T09:24:35;33.50;90.90
11848;DHT22;5983;49.966;8.052;2023-09-12T09:27:02;33.60;90.50
11848;DHT22;5983;49.966;8.052;2023-09-12T09:29:31;33.60;87.30
11848;DHT22;5983;49.966;8.052;2023-09-12T09:31:59;33.50;88.50
11848;DHT22;5983;49.966;8.052;2023-09-12T09:34:26;33.60;89.60
11848;DHT22;5983;49.966;8.052;2023-09-12T09:36:55;33.50;88.40
11848;DHT22;5983;49.966;8.052;2023-09-12T09:39:24;33.50;86.70
11848;DHT22;5983;49.966;8.052;2023-09-12T09:41:52;33.40;87.30
11848;DHT22;5983;49.966;8.052;2023-09-12T09:44:20;33.40;86.90
11848;DHT22;5983;49.966;8.052;2023-09-12T09:46:54;33.50;88.00
11848;DHT22;5983;49.966;8.052;2023-09-12T09:49:21;33.30;87.10
11848;DHT22;5983;49.966;8.052;2023-09-12T09:51:48;33.20;89.40
11848;DHT22;5983;49.966;8.052;2023-09-12T09:54:15;33.10;89.80
11848;DHT22;5983;49.966;8.052;2023-09-12T09:56:45;33.20;90.50
11848;DHT22;5983;49.966;8.052;2023-09-12T09:59:13;33.30;90.80
11848;DHT22;5983;49.966;8.052;2023-09-12T10:01:41;33.50;91.10
11848;DHT22;5983;49.966;8.052;2023-09-12T10:04:10;33.60;90.40
11848;DHT22;5983;49.966;8.052;2023-09-12T10:06:38;33.60;90.20
11848;DHT22;5983;49.966;8.052;2023-09-12T10:09:05;33.80;91.40
11848;DHT22;5983;49.966;8.052;2023-09-12T10:11:37;34.00;91.80
11848;DHT22;5983;49.966;8.052;2023-09-12T10:14:05;34.20;90.10
11848;DHT22;5983;49.966;8.052;2023-09-12T10:16:33;34.40;90.00
11848;DHT22;5983;49.966;8.052;2023-09-12T10:19:04;34.50;88.80
11848;DHT22;5983;49.966;8.052;2023-09-12T10:21:37;34.70;90.10
11848;DHT22;5983;49.966;8.052;2023-09-12T10:24:12;34.90;90.30
11848;DHT22;5983;49.966;8.052;2023-09-12T10:26:40;35.30;90.00
11848;DHT22;5983;49.966;8.052;2023-09-12T10:29:12;35.60;88.70
11848;DHT22;5983;49.966;8.052;2023-09-12T10:31:40;35.90;86.80
11848;DHT22;5983;49.966;8.052;2023-09-12T10:34:07;35.80;87.40
11848;DHT22;5983;49.966;8.052;2023-09-12T10:36:36;35.50;87.40
11848;DHT22;5983;49.966;8.052;2023-09-12T10:39:05;35.10;89.70
11848;DHT22;5983;49.966;8.052;2023-09-12T10:41:33;34.70;90.20
11848;DHT22;5983;49.966;8.052;2023-09-12T10:44:05;34.40;91.30
11848;DHT22;5983;49.966;8.052;2023-09-12T10:46:35;34.10;91.30
11848;DHT22;5983;49.966;8.052;2023-09-12T10:49:05;33.90;91.00
11848;DHT22;5983;49.966;8.052;2023-09-12T10:51:34;33.60;91.80
11848;DHT22;5983;49.966;8.052;2023-09-12T10:54:05;33.20;92.60
11848;DHT22;5983;49.966;8.052;2023-09-12T10:56:33;32.80;93.80
11848;DHT22;5983;49.966;8.052;2023-09-12T10:59:10;32.50;94.80
11848;DHT22;5983;49.966;8.052;2023-09-12T11:01:39;32.40;94.00
11848;DHT22;5983;49.966;8.052;2023-09-12T11:06:59;32.90;94.40
11848;DHT22;5983;49.966;8.052;2023-09-12T11:09:26;33.50;93.60
11848;DHT22;5983;49.966;8.052;2023-09-12T11:11:54;34.00;92.70
11848;DHT22;5983;49.966;8.052;2023-09-12T11:14:22;34.30;92.50
11848;DHT22;5983;49.966;8.052;2023-09-12T11:19:52;34.60;91.30
11848;DHT22;5983;49.966;8.052;2023-09-12T11:22:24;34.80;91.80
11848;DHT22;5983;49.966;8.052;2023-09-12T11:24:52;34.90;91.90
11848;DHT22;5983;49.966;8.052;2023-09-12T11:27:20;35.10;91.30
11848;DHT22;5983;49.966;8.052;2023-09-12T11:29:47;35.10;91.20
11848;DHT22;5983;49.966;8.052;2023-09-12T11:32:25;35.20;91.00
11848;DHT22;5983;49.966;8.052;2023-09-12T11:34:53;35.40;89.70
11848;DHT22;5983;49.966;8.052;2023-09-12T11:37:25;35.50;89.90
11848;DHT22;5983;49.966;8.052;2023-09-12T11:39:53;35.60;89.20
11848;DHT22;5983;49.966;8.052;2023-09-12T11:42:22;35.60;87.10
11848;DHT22;5983;49.966;8.052;2023-09-12T11:44:51;35.60;85.20
11848;DHT22;5983;49.966;8.052;2023-09-12T11:47:18;35.60;83.00
11848;DHT22;5983;49.966;8.052;2023-09-12T11:49:45;35.40;83.40
11848;DHT22;5983;49.966;8.052;2023-09-12T11:52:13;35.20;83.70
11848;DHT22;5983;49.966;8.052;2023-09-12T11:54:43;35.10;84.30
11848;DHT22;5983;49.966;8.052;2023-09-12T11:57:12;35.10;85.10
11848;DHT22;5983;49.966;8.052;2023-09-12T11:59:40;35.10;85.80
11848;DHT22;5983;49.966;8.052;2023-09-12T12:02:09;35.30;86.70
11848;DHT22;5983;49.966;8.052;2023-09-12T12:04:36;35.50;86.20
11848;DHT22;5983;49.966;8.052;2023-09-12T12:07:04;35.50;85.50
11848;DHT22;5983;49.966;8.052;2023-09-12T12:09:31;35.60;84.60
11848;DHT22;5983;49.966;8.052;2023-09-12T12:12:04;35.70;84.80
11848;DHT22;5983;49.966;8.052;2023-09-12T12:14:35;35.70;86.10
11848;DHT22;5983;49.966;8.052;2023-09-12T12:17:05;35.70;85.70
11848;DHT22;5983;49.966;8.052;2023-09-12T12:19:33;35.70;86.90
11848;DHT22;5983;49.966;8.052;2023-09-12T12:21:59;35.70;87.40
11848;DHT22;5983;49.966;8.052;2023-09-12T12:24:35;35.80;86.60
11848;DHT22;5983;49.966;8.052;2023-09-12T12:27:04;35.80;85.70
11848;DHT22;5983;49.966;8.052;2023-09-12T12:29:33;35.70;82.10
11848;DHT22;5983;49.966;8.052;2023-09-12T12:32:00;35.70;84.00
11848;DHT22;5983;49.966;8.052;2023-09-12T12:34:27;35.70;86.00
11848;DHT22;5983;49.966;8.052;2023-09-12T12:36:54;35.80;82.30
11848;DHT22;5983;49.966;8.052;2023-09-12T12:39:21;35.80;82.10
11848;DHT22;5983;49.966;8.052;2023-09-12T12:41:51;35.90;81.70
11848;DHT22;5983;49.966;8.052;2023-09-12T12:44:20;35.90;82.30
11848;DHT22;5983;49.966;8.052;2023-09-12T12:46:49;36.10;80.50
11848;DHT22;5983;49.966;8.052;2023-09-12T12:49:17;36.00;79.50
11848;DHT22;5983;49.966;8.052;2023-09-12T12:51:44;35.80;79.50
11848;DHT22;5983;49.966;8.052;2023-09-12T12:54:11;35.60;79.90
11848;DHT22;5983;49.966;8.052;2023-09-12T12:56:38;35.40;83.10
11848;DHT22;5983;49.966;8.052;2023-09-12T12:59:06;35.40;82.20
11848;DHT22;5983;49.966;8.052;2023-09-12T13:01:36;35.30;81.50
11848;DHT22;5983;49.966;8.052;2023-09-12T13:04:04;35.20;80.00
11848;DHT22;5983;49.966;8.052;2023-09-12T13:06:32;35.20;80.60
11848;DHT22;5983;49.966;8.052;2023-09-12T13:09:01;35.40;80.40
11848;DHT22;5983;49.966;8.052;2023-09-12T13:11:30;35.50;80.60
11848;DHT22;5983;49.966;8.052;2023-09-12T13:13:57;35.50;79.90
11848;DHT22;5983;49.966;8.052;2023-09-12T13:16:23;35.10;79.40
11848;DHT22;5983;49.966;8.052;2023-09-12T13:18:52;34.80;79.60
11848;DHT22;5983;49.966;8.052;2023-09-12T13:21:18;34.50;79.50
11848;DHT22;5983;49.966;8.052;2023-09-12T13:23:45;34.10;80.40
11848;DHT22;5983;49.966;8.052;2023-09-12T13:26:12;33.90;81.60
11848;DHT22;5983;49.966;8.052;2023-09-12T13:28:38;33.90;82.20
11848;DHT22;5983;49.966;8.052;2023-09-12T13:31:06;34.00;83.10
11848;DHT22;5983;49.966;8.052;2023-09-12T13:33:33;34.10;82.80
11848;DHT22;5983;49.966;8.052;2023-09-12T13:36:01;34.30;82.90
11848;DHT22;5983;49.966;8.052;2023-09-12T13:38:28;34.30;83.10
11848;DHT22;5983;49.966;8.052;2023-09-12T13:40:54;34.40;86.20
11848;DHT22;5983;49.966;8.052;2023-09-12T13:43:21;34.40;86.90
11848;DHT22;5983;49.966;8.052;2023-09-12T13:45:48;34.40;86.50
11848;DHT22;5983;49.966;8.052;2023-09-12T13:48:15;34.40;86.60
11848;DHT22;5983;49.966;8.052;2023-09-12T13:50:41;34.40;85.50
11848;DHT22;5983;49.966;8.052;2023-09-12T13:53:10;34.40;85.20
11848;DHT22;5983;49.966;8.052;2023-09-12T13:55:37;34.40;87.60
11848;DHT22;5983;49.966;8.052;2023-09-12T13:58:04;34.30;88.10
11848;DHT22;5983;49.966;8.052;2023-09-12T14:00:32;34.30;86.70
11848;DHT22;5983;49.966;8.052;2023-09-12T14:03:00;34.20;87.60
11848;DHT22;5983;49.966;8.052;2023-09-12T14:05:26;34.00;87.30
11848;DHT22;5983;49.966;8.052;2023-09-12T14:07:53;33.90;87.00
11848;DHT22;5983;49.966;8.052;2023-09-12T14:10:21;33.80;86.90
11848;DHT22;5983;49.966;8.052;2023-09-12T14:12:48;33.80;86.80
11848;DHT22;5983;49.966;8.052;2023-09-12T14:15:14;33.70;84.90
11848;DHT22;5983;49.966;8.052;2023-09-12T14:17:41;33.60;84.80
11848;DHT22;5983;49.966;8.052;2023-09-12T14:20:09;33.60;84.80
11848;DHT22;5983;49.966;8.052;2023-09-12T14:22:40;33.40;85.70
11848;DHT22;5983;49.966;8.052;2023-09-12T14:25:08;33.30;86.00
11848;DHT22;5983;49.966;8.052;2023-09-12T14:27:42;33.10;84.90
11848;DHT22;5983;49.966;8.052;2023-09-12T14:30:10;33.00;84.70
11848;DHT22;5983;49.966;8.052;2023-09-12T14:32:38;32.90;85.90
11848;DHT22;5983;49.966;8.052;2023-09-12T14:35:06;32.90;88.30
11848;DHT22;5983;49.966;8.052;2023-09-12T14:37:33;32.80;90.20
11848;DHT22;5983;49.966;8.052;2023-09-12T14:40:02;32.80;90.80
11848;DHT22;5983;49.966;8.052;2023-09-12T14:42:31;32.80;90.60
11848;DHT22;5983;49.966;8.052;2023-09-12T14:44:59;32.70;90.60
11848;DHT22;5983;49.966;8.052;2023-09-12T14:47:26;32.70;90.50
11848;DHT22;5983;49.966;8.052;2023-09-12T14:49:55;32.50;90.10
11848;DHT22;5983;49.966;8.052;2023-09-12T14:52:24;32.50;90.10
11848;DHT22;5983;49.966;8.052;2023-09-12T14:54:52;32.40;90.50
11848;DHT22;5983;49.966;8.052;2023-09-12T14:57:19;32.30;90.70
11848;DHT22;5983;49.966;8.052;2023-09-12T14:59:49;32.20;90.50
11848;DHT22;5983;49.966;8.052;2023-09-12T15:02:18;32.10;90.40
11848;DHT22;5983;49.966;8.052;2023-09-12T15:04:45;32.00;90.30
11848;DHT22;5983;49.966;8.052;2023-09-12T15:07:11;31.90;90.40
11848;DHT22;5983;49.966;8.052;2023-09-12T15:09:38;31.70;90.50
11848;DHT22;5983;49.966;8.052;2023-09-12T15:12:06;31.60;90.80
11848;DHT22;5983;49.966;8.052;2023-09-12T15:14:33;31.50;91.20
11848;DHT22;5983;49.966;8.052;2023-09-12T15:17:00;31.40;91.40
11848;DHT22;5983;49.966;8.052;2023-09-12T15:19:29;31.40;91.70
11848;DHT22;5983;49.966;8.052;2023-09-12T15:21:56;31.30;91.70
11848;DHT22;5983;49.966;8.052;2023-09-12T15:24:23;31.10;92.10
11848;DHT22;5983;49.966;8.052;2023-09-12T15:26:51;31.00;92.50
11848;DHT22;5983;49.966;8.052;2023-09-12T15:29:18;30.90;93.10
11848;DHT22;5983;49.966;8.052;2023-09-12T15:31:45;30.80;94.00
11848;DHT22;5983;49.966;8.052;2023-09-12T15:34:12;30.70;94.80
11848;DHT22;5983;49.966;8.052;2023-09-12T15:36:42;30.50;95.10
11848;DHT22;5983;49.966;8.052;2023-09-12T15:39:10;30.40;95.50
11848;DHT22;5983;49.966;8.052;2023-09-12T15:41:37;30.20;96.40
11848;DHT22;5983;49.966;8.052;2023-09-12T15:44:05;30.00;97.40
11848;DHT22;5983;49.966;8.052;2023-09-12T15:46:33;29.90;98.20
11848;DHT22;5983;49.966;8.052;2023-09-12T15:49:01;29.80;98.70
11848;DHT22;5983;49.966;8.052;2023-09-12T15:51:31;29.70;99.20
11848;DHT22;5983;49.966;8.052;2023-09-12T15:54:00;29.60;99.60
11848;DHT22;5983;49.966;8.052;2023-09-12T15:56:26;29.50;99.90
11848;DHT22;5983;49.966;8.052;2023-09-12T15:58:53;29.50;99.80